הכול
Ballera Airport (Ballera, Queensland) BBL מזג אוויר
|
Ballera, Queensland (BBL / YLLE)
שמים בהירים
רוחות קלות |
|
21 °C |
BBL Terminal Area Forecast
| Date | Time (AEST) | Flight Rules | Wind Dir. | Speed | Type | Height AGL (ft) | Visibility | Remarks | ||||||
|---|---|---|---|---|---|---|---|---|---|---|---|---|---|---|
| 06-ספט | 23:00 | VFR | 160° | 12 kt | Clouds and Visibility are OK | >= 6 miles | ||||||||
| 06-ספט | 22:00 | VFR | 160° | 12 kt | Clouds and Visibility are OK | >= 6 miles | ||||||||
| 06-ספט | 21:00 | VFR | 160° | 12 kt | Clouds and Visibility are OK | >= 6 miles | ||||||||
| 06-ספט | 20:00 | VFR | 160° | 12 kt | Clouds and Visibility are OK | >= 6 miles | ||||||||
Recent BBL METAR history
| Date | Time (AEST) | Flight Rules | Wind Dir. | Speed | Type | Height AGL (ft) | Visibility | Temp (°C) | Temp (°F) | Dew Point (°C) | Dew Point (°F) | Rel. Humid. | Pressure | Density Altitude | Remarks |
|---|---|---|---|---|---|---|---|---|---|---|---|---|---|---|---|
| 06-ספט | 20:00 | VFR | 170° | 9 kt | 10000 meters | 21° | 69° | 4° | 39° | 33% | 1019 mb | 934 ft | |||
| 06-ספט | 19:00 | VFR | 170° | 9 kt | 10000 meters | 23° | 73° | 3° | 37° | 27% | 1018 mb | 1,203 ft | |||
| 06-ספט | 18:00 | VFR | 160° | 12 kt | 10000 meters | 25° | 77° | 3° | 37° | 24% | 1018 mb | 1,443 ft | |||
| 06-ספט | 17:00 | VFR | 150° | 12 kt | 10000 meters | 27° | 80° | 4° | 39° | 23% | 1017 mb | 1,713 ft | |||
| 06-ספט | 16:00 | VFR | 130° | 10 kt | 10000 meters | 27° | 80° | 5° | 41° | 24% | 1017 mb | 1,713 ft | |||
| 06-ספט | 15:00 | VFR | 130° | 11 kt | 10000 meters | 27° | 80° | 6° | 42° | 26% | 1017 mb | 1,713 ft | |||
| 06-ספט | 14:00 | VFR | 130° | 11 kt | 10000 meters | 26° | 78° | 6° | 42° | 28% | 1018 mb | 1,563 ft | |||
| 06-ספט | 13:00 | VFR | 130° | 13 kt | 10000 meters | 25° | 77° | 6° | 42° | 30% | 1019 mb | 1,414 ft | |||
| 06-ספט | 12:00 | VFR | 130° | 14 kt | 10000 meters | 25° | 77° | 6° | 42° | 30% | 1020 mb | 1,384 ft | |||
| 06-ספט | 11:00 | VFR | 130° | 15 kt | 10000 meters | 23° | 73° | 6° | 42° | 33% | 1021 mb | 1,115 ft | |||
| 06-ספט | 10:00 | VFR | 140° | 17 kt | 10000 meters | 21° | 69° | 7° | 44° | 40% | 1021 mb | 875 ft | |||
| 06-ספט | 09:00 | VFR | 130° | 18 kt | 10000 meters | 20° | 68° | 7° | 44° | 43% | 1020 mb | 784 ft | |||
| 06-ספט | 08:00 | VFR | 150° | 17 kt | 10000 meters | 18° | 64° | 7° | 44° | 49% | 1020 mb | 544 ft | |||
| 06-ספט | 07:00 | VFR | 160° | 12 kt | 10000 meters | 17° | 62° | 7° | 44° | 52% | 1019 mb | 454 ft | |||
| 06-ספט | 06:00 | VFR | 150° | 14 kt | 10000 meters | 18° | 64° | 7° | 44° | 49% | 1018 mb | 603 ft | |||
| 06-ספט | 05:00 | VFR | 160° | 13 kt | 10000 meters | 19° | 66° | 7° | 44° | 46% | 1017 mb | 753 ft | |||
| 06-ספט | 04:00 | VFR | 180° | 12 kt | 10000 meters | 20° | 68° | 6° | 42° | 40% | 1017 mb | 873 ft | |||
| 06-ספט | 03:00 | VFR | 190° | 9 kt | 10000 meters | 21° | 69° | 6° | 42° | 38% | 1017 mb | 993 ft | |||
| 06-ספט | 02:00 | VFR | 210° | 10 kt | 10000 meters | 21° | 69° | 6° | 42° | 38% | 1017 mb | 993 ft | |||
| gap in available data | |||||||||||||||
| 05-ספט | 23:30 | VFR | 240° | 6 kt | 10000 meters | 20° | 68° | 9° | 48° | 49% | 1017 mb | 873 ft | |||
| 05-ספט | 23:00 | VFR | 230° | 7 kt | 10000 meters | 20° | 68° | 9° | 48° | 49% | 1017 mb | 873 ft | |||
| 05-ספט | 22:00 | VFR | 220° | 9 kt | 10000 meters | 23° | 73° | 9° | 48° | 41% | 1016 mb | 1,263 ft | |||
| 05-ספט | 21:00 | VFR | 210° | 15 kt | 10000 meters |
25° | 77° | 9° | 48° | 36% | 1015 mb | 1,532 ft | |||
| 05-ספט | 20:08 | MVFR | 220° | 10 kt | 5000 meters | 26° | 78° | 3° | 37° | 23% | 1015 mb | 1,652 ft | Haze | ||
כניסה לאתר
| אין תמיכה בדפדפן שלך. שדרג את הדפדפן שלך |
